createdAt,value
2018-09-14T00:00:41.558Z,15.72
2018-09-14T00:03:08.804Z,15.72
2018-09-14T00:05:35.944Z,15.62
2018-09-14T00:08:03.943Z,15.75
2018-09-14T00:10:31.203Z,15.84
2018-09-14T00:12:58.336Z,15.61
2018-09-14T00:15:25.504Z,15.29
2018-09-14T00:17:52.750Z,15.35
2018-09-14T00:20:19.858Z,15.36
2018-09-14T00:22:47.100Z,15.38
2018-09-14T00:25:14.240Z,15.41
2018-09-14T00:27:41.352Z,15.60
2018-09-14T00:30:08.541Z,15.55
2018-09-14T00:32:35.711Z,15.35
2018-09-14T00:35:03.844Z,15.38
2018-09-14T00:37:31.056Z,15.55
2018-09-14T00:39:58.185Z,15.69
2018-09-14T00:42:25.348Z,15.75
2018-09-14T00:44:52.550Z,15.67
2018-09-14T00:47:19.688Z,15.30
2018-09-14T00:49:46.802Z,15.46
2018-09-14T00:52:14.001Z,15.55
2018-09-14T00:54:41.107Z,15.42
2018-09-14T00:57:08.276Z,15.29
2018-09-14T00:59:35.426Z,15.35
2018-09-14T01:02:02.535Z,15.28
2018-09-14T01:04:29.672Z,15.20
2018-09-14T01:06:56.873Z,15.25
2018-09-14T01:09:26.497Z,15.12
2018-09-14T01:11:54.516Z,15.13
2018-09-14T01:14:21.683Z,15.31
2018-09-14T01:16:48.848Z,15.19
2018-09-14T01:19:15.980Z,15.14
2018-09-14T01:21:43.165Z,15.17
2018-09-14T01:24:10.268Z,15.28
2018-09-14T01:26:37.688Z,15.19
2018-09-14T01:29:05.045Z,15.13
2018-09-14T01:31:32.204Z,15.10
2018-09-14T01:33:59.373Z,15.33
2018-09-14T01:36:26.625Z,15.44
2018-09-14T01:38:53.757Z,15.46
2018-09-14T01:41:20.904Z,15.14
2018-09-14T01:43:48.052Z,15.25
2018-09-14T01:46:15.160Z,15.15
2018-09-14T01:48:42.449Z,15.25
2018-09-14T01:51:09.596Z,15.19
2018-09-14T01:53:36.772Z,15.19
2018-09-14T01:56:03.960Z,15.27
2018-09-14T01:58:31.037Z,15.36
2018-09-14T02:00:58.163Z,15.32
2018-09-14T02:03:25.354Z,15.21
2018-09-14T02:05:52.508Z,15.14
2018-09-14T02:08:19.696Z,15.13
2018-09-14T02:10:46.809Z,15.31
2018-09-14T02:13:13.962Z,15.18
2018-09-14T02:15:41.136Z,15.27
2018-09-14T02:18:08.321Z,15.16
2018-09-14T02:20:36.648Z,15.14
2018-09-14T02:23:03.813Z,15.40
2018-09-14T02:25:30.947Z,15.47
2018-09-14T02:27:58.064Z,15.39
2018-09-14T02:30:25.204Z,15.22
2018-09-14T02:32:52.343Z,15.36
2018-09-14T02:35:19.432Z,15.31
2018-09-14T02:37:46.592Z,15.21
2018-09-14T02:40:13.728Z,15.19
2018-09-14T02:42:40.871Z,15.36
2018-09-14T02:45:08.064Z,15.47
2018-09-14T02:47:35.292Z,15.51
2018-09-14T02:50:02.502Z,15.48
2018-09-14T02:52:29.625Z,15.35
2018-09-14T02:54:56.808Z,15.30
2018-09-14T02:57:23.946Z,15.15
2018-09-14T02:59:51.067Z,15.29
2018-09-14T03:02:18.276Z,15.36
2018-09-14T03:04:45.377Z,15.37
2018-09-14T03:07:12.453Z,15.45
2018-09-14T03:09:39.728Z,15.17
2018-09-14T03:12:06.901Z,15.12
2018-09-14T03:14:34.053Z,15.24
2018-09-14T03:17:01.308Z,15.11
2018-09-14T03:19:28.406Z,15.04
2018-09-14T03:21:55.600Z,14.86
2018-09-14T03:24:22.757Z,14.76
2018-09-14T03:26:49.913Z,14.75
2018-09-14T03:29:17.092Z,14.62
2018-09-14T03:31:44.264Z,14.84
2018-09-14T03:34:11.348Z,14.69
2018-09-14T03:36:38.449Z,14.74
2018-09-14T03:39:07.139Z,14.90
2018-09-14T03:41:34.261Z,14.76
2018-09-14T03:44:01.945Z,14.85
2018-09-14T03:46:29.171Z,14.93
2018-09-14T03:48:56.271Z,14.81
2018-09-14T03:51:23.409Z,14.66
2018-09-14T03:53:50.556Z,14.72
2018-09-14T03:56:17.708Z,14.65
2018-09-14T03:58:44.851Z,14.86
2018-09-14T04:01:11.992Z,14.88
2018-09-14T04:03:39.137Z,14.92
2018-09-14T04:06:06.296Z,14.92
2018-09-14T04:08:33.460Z,14.93
2018-09-14T04:11:00.667Z,14.87
2018-09-14T04:13:27.804Z,14.78
2018-09-14T04:15:54.936Z,14.75
2018-09-14T04:18:22.229Z,14.61
2018-09-14T04:20:49.341Z,14.70
2018-09-14T04:23:16.491Z,14.74
2018-09-14T04:25:43.645Z,14.81
2018-09-14T04:28:10.793Z,14.68
2018-09-14T04:30:38.008Z,14.75
2018-09-14T04:33:05.121Z,14.66
2018-09-14T04:35:32.326Z,14.69
2018-09-14T04:37:59.530Z,14.81
2018-09-14T04:40:26.654Z,14.82
2018-09-14T04:42:53.786Z,14.79
2018-09-14T04:45:20.890Z,14.84
2018-09-14T04:47:47.972Z,14.78
2018-09-14T04:50:15.112Z,14.74
2018-09-14T04:52:42.237Z,14.83
2018-09-14T04:55:09.425Z,14.76
2018-09-14T04:57:36.596Z,14.73
2018-09-14T05:00:03.951Z,14.82
2018-09-14T05:02:31.073Z,14.83
2018-09-14T05:04:58.233Z,14.78
2018-09-14T05:07:25.366Z,14.92
2018-09-14T05:09:52.525Z,14.82
2018-09-14T05:12:19.651Z,14.69
2018-09-14T05:14:46.793Z,14.76
2018-09-14T05:17:14.011Z,14.64
2018-09-14T05:19:41.170Z,14.81
2018-09-14T05:22:08.328Z,14.86
2018-09-14T05:24:35.514Z,14.78
2018-09-14T05:27:02.600Z,14.73
2018-09-14T05:29:29.810Z,14.69
2018-09-14T05:31:56.957Z,14.71
2018-09-14T05:34:24.053Z,14.90
2018-09-14T05:36:51.227Z,15.00
2018-09-14T05:39:18.388Z,15.04
2018-09-14T05:41:45.570Z,15.04
2018-09-14T05:44:12.836Z,15.13
2018-09-14T05:46:39.948Z,15.26
2018-09-14T05:49:07.104Z,15.04
2018-09-14T05:51:34.194Z,15.12
2018-09-14T05:54:01.313Z,14.97
2018-09-14T05:56:28.437Z,15.09
2018-09-14T05:58:55.612Z,15.17
2018-09-14T06:01:22.732Z,15.04
2018-09-14T06:03:49.881Z,14.90
2018-09-14T06:06:17.034Z,14.81
2018-09-14T06:08:44.185Z,15.01
2018-09-14T06:11:11.348Z,14.94
2018-09-14T06:13:38.772Z,15.08
2018-09-14T06:16:05.980Z,15.08
2018-09-14T06:18:33.114Z,15.00
2018-09-14T06:21:00.257Z,14.94
2018-09-14T06:23:27.424Z,14.82
2018-09-14T06:25:54.542Z,14.84
2018-09-14T06:28:21.773Z,14.79
2018-09-14T06:30:48.936Z,14.86
2018-09-14T06:33:16.043Z,14.87
2018-09-14T06:35:43.232Z,14.77
2018-09-14T06:38:10.418Z,14.74
2018-09-14T06:40:37.589Z,14.76
2018-09-14T06:43:04.741Z,14.82
2018-09-14T06:45:31.858Z,14.88
2018-09-14T06:47:58.962Z,14.75
2018-09-14T06:50:26.193Z,14.84
2018-09-14T06:52:53.338Z,14.97
2018-09-14T06:55:20.476Z,15.01
2018-09-14T06:57:47.585Z,14.97
2018-09-14T07:00:14.782Z,14.88
2018-09-14T07:02:41.948Z,14.85
2018-09-14T07:05:09.064Z,14.78
2018-09-14T07:07:36.209Z,14.65
2018-09-14T07:10:03.679Z,14.67
2018-09-14T07:12:30.821Z,14.74
2018-09-14T07:14:57.960Z,14.80
2018-09-14T07:17:25.145Z,14.69
2018-09-14T07:19:52.264Z,14.75
2018-09-14T07:22:19.512Z,14.70
2018-09-14T07:24:46.647Z,14.90
2018-09-14T07:27:13.660Z,15.04
2018-09-14T07:29:40.843Z,15.11
2018-09-14T07:32:07.961Z,15.16
2018-09-14T07:34:35.152Z,15.03
2018-09-14T07:37:02.395Z,15.02
2018-09-14T07:39:29.517Z,15.02
2018-09-14T07:41:56.745Z,15.03
2018-09-14T07:44:23.909Z,14.99
2018-09-14T07:46:51.073Z,15.08
2018-09-14T07:49:18.214Z,15.20
2018-09-14T07:51:45.338Z,15.33
2018-09-14T07:54:12.503Z,15.04
2018-09-14T07:56:39.656Z,15.00
2018-09-14T07:59:06.796Z,15.19
2018-09-14T08:01:33.913Z,15.16
2018-09-14T08:04:01.427Z,15.16
2018-09-14T08:06:28.841Z,15.30
2018-09-14T08:08:55.968Z,15.38
2018-09-14T08:11:23.244Z,15.49
2018-09-14T08:13:50.409Z,15.42
2018-09-14T08:16:17.572Z,15.58
2018-09-14T08:18:44.741Z,15.55
2018-09-14T08:21:11.966Z,15.59
2018-09-14T08:23:39.072Z,15.43
2018-09-14T08:26:06.218Z,15.57
2018-09-14T08:28:33.391Z,15.45
2018-09-14T08:31:00.604Z,15.62
2018-09-14T08:33:27.773Z,15.55
2018-09-14T08:35:55.017Z,15.63
2018-09-14T08:38:22.157Z,15.55
2018-09-14T08:40:49.330Z,15.58
2018-09-14T08:43:16.545Z,15.83
2018-09-14T08:45:43.682Z,16.07
2018-09-14T08:48:10.832Z,16.14
2018-09-14T08:50:38.001Z,16.08
2018-09-14T08:53:05.165Z,16.03
2018-09-14T08:55:32.268Z,16.04
2018-09-14T08:57:59.552Z,16.12
2018-09-14T09:00:26.704Z,16.24
2018-09-14T09:02:54.282Z,16.00
2018-09-14T09:05:22.129Z,16.20
2018-09-14T09:07:49.664Z,16.11
2018-09-14T09:10:16.780Z,16.15
2018-09-14T09:12:43.933Z,16.17
2018-09-14T09:15:11.135Z,16.20
2018-09-14T09:17:38.331Z,16.18
2018-09-14T09:20:05.747Z,16.32
2018-09-14T09:22:32.840Z,16.38
2018-09-14T09:24:59.977Z,16.40
2018-09-14T09:27:27.133Z,16.50
2018-09-14T09:29:54.331Z,16.54
2018-09-14T09:32:21.491Z,16.69
2018-09-14T09:34:48.684Z,16.60
2018-09-14T09:37:15.818Z,16.34
2018-09-14T09:39:43.026Z,16.13
2018-09-14T09:42:10.174Z,16.26
2018-09-14T09:44:37.335Z,16.17
2018-09-14T09:47:04.529Z,16.14
2018-09-14T09:49:31.716Z,16.27
2018-09-14T09:51:58.865Z,16.38
2018-09-14T09:54:25.993Z,16.42
2018-09-14T09:56:53.432Z,16.61
2018-09-14T09:59:20.584Z,16.91
2018-09-14T10:01:53.261Z,16.98
2018-09-14T10:04:25.113Z,17.00
2018-09-14T10:06:52.661Z,17.14
2018-09-14T10:09:19.833Z,17.28
2018-09-14T10:11:47.040Z,17.16
2018-09-14T10:14:14.239Z,17.12
2018-09-14T10:16:48.234Z,17.55
2018-09-14T10:19:15.394Z,17.89
2018-09-14T10:21:42.552Z,18.07
2018-09-14T10:24:09.676Z,17.81
2018-09-14T10:26:36.811Z,17.52
2018-09-14T10:29:03.982Z,17.35
2018-09-14T10:31:31.073Z,17.23
2018-09-14T10:33:58.255Z,17.32
2018-09-14T10:36:25.323Z,17.09
2018-09-14T10:38:52.540Z,17.34
2018-09-14T10:41:19.705Z,17.49
2018-09-14T10:43:46.882Z,17.61
2018-09-14T10:46:14.008Z,17.54
2018-09-14T10:48:41.265Z,17.73
2018-09-14T10:51:08.433Z,17.70
2018-09-14T10:53:35.741Z,18.52
2018-09-14T10:56:02.925Z,19.06
2018-09-14T10:58:37.596Z,19.02
2018-09-14T11:01:04.805Z,19.20
2018-09-14T11:03:32.098Z,19.09
2018-09-14T11:05:59.197Z,19.48
2018-09-14T11:08:26.329Z,19.16
2018-09-14T11:10:53.456Z,18.99
2018-09-14T11:13:20.672Z,19.04
2018-09-14T11:15:47.820Z,18.98
2018-09-14T11:18:14.953Z,19.13
2018-09-14T11:20:42.143Z,18.47
2018-09-14T11:23:09.314Z,18.14
2018-09-14T11:25:36.535Z,18.41
2018-09-14T11:28:03.873Z,18.31
2018-09-14T11:30:30.875Z,18.44
2018-09-14T11:32:58.053Z,18.47
2018-09-14T11:35:25.172Z,18.89
2018-09-14T11:37:52.423Z,18.82
2018-09-14T11:40:19.547Z,18.97
2018-09-14T11:42:46.748Z,19.24
2018-09-14T11:45:13.964Z,19.28
2018-09-14T11:47:41.132Z,19.40
2018-09-14T11:50:08.288Z,19.38
2018-09-14T11:52:35.455Z,19.45
2018-09-14T11:55:02.828Z,19.81
2018-09-14T11:57:29.981Z,20.33
2018-09-14T11:59:57.128Z,20.57
2018-09-14T12:02:24.892Z,20.18
2018-09-14T12:04:53.687Z,20.10
2018-09-14T12:07:20.871Z,20.15
2018-09-14T12:09:48.033Z,19.98
2018-09-14T12:12:15.192Z,19.35
2018-09-14T12:14:42.416Z,18.99
2018-09-14T12:17:10.180Z,18.76
2018-09-14T12:19:37.324Z,18.70
2018-09-14T12:22:04.517Z,18.58
2018-09-14T12:24:31.604Z,18.70
2018-09-14T12:26:58.762Z,18.78
2018-09-14T12:29:25.989Z,18.67
2018-09-14T12:31:53.137Z,18.76
2018-09-14T12:34:20.250Z,18.76
2018-09-14T12:36:47.533Z,18.85
2018-09-14T12:39:14.737Z,19.13
2018-09-14T12:41:41.882Z,19.86
2018-09-14T12:44:09.081Z,20.29
2018-09-14T12:46:36.259Z,20.77
2018-09-14T12:49:03.616Z,21.74
2018-09-14T12:51:30.868Z,22.53
2018-09-14T12:53:57.984Z,22.92
2018-09-14T12:56:25.203Z,23.17
2018-09-14T12:58:52.402Z,23.95
2018-09-14T13:01:19.576Z,24.15
2018-09-14T13:03:46.757Z,23.91
2018-09-14T13:06:13.900Z,22.89
2018-09-14T13:08:41.009Z,22.22
2018-09-14T13:11:08.161Z,22.10
2018-09-14T13:13:35.296Z,21.26
2018-09-14T13:16:02.420Z,20.60
2018-09-14T13:18:29.643Z,20.42
2018-09-14T13:20:56.787Z,20.41
2018-09-14T13:23:24.009Z,20.39
2018-09-14T13:25:51.215Z,21.15
2018-09-14T13:28:18.416Z,22.29
2018-09-14T13:30:45.521Z,23.25
2018-09-14T13:33:12.725Z,23.75
2018-09-14T13:35:39.881Z,24.21
2018-09-14T13:38:07.057Z,23.65
2018-09-14T13:40:34.218Z,23.41
2018-09-14T13:43:01.396Z,22.15
2018-09-14T13:45:28.841Z,21.33
2018-09-14T13:47:56.077Z,23.02
2018-09-14T13:50:23.247Z,23.10
2018-09-14T13:52:50.512Z,23.58
2018-09-14T13:55:17.621Z,24.01
2018-09-14T13:57:44.883Z,23.89
2018-09-14T14:00:12.138Z,24.04
2018-09-14T14:02:39.402Z,24.27
2018-09-14T14:05:06.625Z,24.56
2018-09-14T14:07:33.951Z,24.52
2018-09-14T14:10:01.116Z,24.70
2018-09-14T14:12:28.387Z,25.65
2018-09-14T14:14:55.656Z,25.00
2018-09-14T14:17:22.877Z,24.83
2018-09-14T14:19:50.142Z,23.61
2018-09-14T14:22:17.377Z,23.60
2018-09-14T14:24:44.586Z,24.71
2018-09-14T14:27:11.854Z,25.67
2018-09-14T14:29:39.077Z,24.17
2018-09-14T14:32:06.441Z,24.04
2018-09-14T14:34:33.612Z,22.98
2018-09-14T14:37:00.798Z,23.24
2018-09-14T14:39:28.201Z,23.06
2018-09-14T14:41:55.356Z,23.68
2018-09-14T14:44:22.566Z,22.89
2018-09-14T14:46:49.809Z,23.15
2018-09-14T14:49:17.015Z,24.12
2018-09-14T14:51:44.429Z,23.83
2018-09-14T14:54:11.702Z,24.07
2018-09-14T14:56:38.858Z,24.44
2018-09-14T14:59:05.993Z,25.35
2018-09-14T15:01:33.179Z,24.63
2018-09-14T15:04:00.361Z,25.19
2018-09-14T15:06:27.721Z,23.71
2018-09-14T15:08:54.902Z,24.30
2018-09-14T15:11:22.073Z,24.13
2018-09-14T15:13:49.348Z,24.37
2018-09-14T15:16:16.491Z,22.88
2018-09-14T15:18:43.689Z,22.63
2018-09-14T15:21:10.915Z,22.89
2018-09-14T15:23:38.062Z,23.33
2018-09-14T15:26:05.245Z,22.47
2018-09-14T15:28:32.482Z,23.09
2018-09-14T15:30:59.657Z,22.67
2018-09-14T15:33:26.786Z,22.36
2018-09-14T15:35:54.129Z,21.82
2018-09-14T15:38:21.276Z,21.54
2018-09-14T15:40:48.548Z,21.72
2018-09-14T15:43:15.741Z,21.14
2018-09-14T15:45:42.904Z,21.47
2018-09-14T15:48:10.261Z,21.49
2018-09-14T15:50:37.458Z,21.24
2018-09-14T15:53:04.617Z,21.46
2018-09-14T15:55:31.784Z,20.84
2018-09-14T15:57:58.968Z,21.12
2018-09-14T16:00:26.218Z,20.96
2018-09-14T16:02:53.735Z,21.06
2018-09-14T16:05:20.923Z,20.94
2018-09-14T16:07:48.459Z,20.88
2018-09-14T16:10:15.758Z,20.62
2018-09-14T16:12:42.908Z,20.54
2018-09-14T16:15:10.312Z,20.31
2018-09-14T16:17:37.606Z,20.60
2018-09-14T16:20:05.535Z,20.66
2018-09-14T16:22:32.974Z,20.77
2018-09-14T16:25:00.114Z,20.69
2018-09-14T16:27:27.276Z,19.32
2018-09-14T16:29:54.544Z,20.82
2018-09-14T16:32:21.792Z,20.69
2018-09-14T16:34:48.962Z,20.58
2018-09-14T16:37:16.200Z,20.33
2018-09-14T16:39:43.281Z,20.28
2018-09-14T16:42:10.441Z,20.17
2018-09-14T16:44:39.534Z,20.17
2018-09-14T16:47:07.157Z,20.01
2018-09-14T16:49:34.376Z,19.71
2018-09-14T16:52:01.634Z,19.49
2018-09-14T16:54:28.930Z,19.41
2018-09-14T16:56:56.405Z,19.32
2018-09-14T16:59:23.597Z,19.49
2018-09-14T17:01:50.945Z,19.44
2018-09-14T17:04:18.107Z,19.53
2018-09-14T17:06:45.386Z,19.31
2018-09-14T17:09:12.707Z,19.30
2018-09-14T17:11:40.127Z,18.89
2018-09-14T17:14:08.081Z,18.98
2018-09-14T17:16:35.467Z,18.96
2018-09-14T17:19:02.605Z,19.02
2018-09-14T17:21:30.081Z,18.86
2018-09-14T17:23:57.281Z,18.80
2018-09-14T17:26:24.585Z,18.98
2018-09-14T17:28:52.019Z,18.91
2018-09-14T17:31:20.050Z,18.92
2018-09-14T17:33:47.214Z,18.38
2018-09-14T17:36:14.589Z,18.24
2018-09-14T17:38:41.792Z,18.23
2018-09-14T17:41:09.119Z,18.08
2018-09-14T17:43:36.552Z,17.64
2018-09-14T17:46:03.838Z,18.06
2018-09-14T17:48:31.099Z,18.15
2018-09-14T17:50:58.477Z,17.81
2018-09-14T17:53:25.737Z,17.44
2018-09-14T17:55:53.095Z,17.39
2018-09-14T17:58:20.490Z,17.73
2018-09-14T18:00:47.736Z,17.85
2018-09-14T18:03:22.059Z,17.88
2018-09-14T18:05:49.217Z,17.27
2018-09-14T18:08:16.582Z,17.24
2018-09-14T18:10:43.987Z,17.48
2018-09-14T18:13:11.260Z,17.62
2018-09-14T18:15:38.419Z,17.44
2018-09-14T18:18:05.758Z,17.34
2018-09-14T18:20:33.027Z,17.40
2018-09-14T18:23:00.291Z,17.43
2018-09-14T18:25:27.616Z,17.51
2018-09-14T18:27:54.936Z,17.26
2018-09-14T18:30:22.274Z,16.68
2018-09-14T18:32:49.653Z,16.76
2018-09-14T18:35:17.058Z,16.92
2018-09-14T18:37:44.434Z,17.07
2018-09-14T18:40:12.044Z,17.10
2018-09-14T18:42:39.429Z,17.13
2018-09-14T18:45:07.055Z,17.20
2018-09-14T18:47:34.655Z,17.25
2018-09-14T18:50:02.438Z,17.23
2018-09-14T18:52:30.072Z,17.06
2018-09-14T18:54:57.692Z,17.17
2018-09-14T18:57:25.210Z,17.24
2018-09-14T18:59:52.744Z,17.13
2018-09-14T19:02:20.387Z,16.67
2018-09-14T19:04:48.030Z,16.65
2018-09-14T19:07:15.512Z,16.74
2018-09-14T19:09:43.103Z,17.01
2018-09-14T19:12:10.677Z,17.00
2018-09-14T19:14:38.186Z,17.03
2018-09-14T19:17:05.917Z,16.95
2018-09-14T19:19:33.577Z,16.76
2018-09-14T19:22:01.431Z,16.45
2018-09-14T19:24:29.069Z,16.42
2018-09-14T19:26:56.905Z,16.60
2018-09-14T19:29:24.549Z,16.72
2018-09-14T19:31:52.154Z,16.82
2018-09-14T19:34:19.787Z,16.77
2018-09-14T19:36:47.367Z,16.91
2018-09-14T19:39:14.959Z,16.75
2018-09-14T19:41:42.605Z,16.85
2018-09-14T19:44:10.403Z,16.93
2018-09-14T19:46:38.035Z,16.79
2018-09-14T19:49:05.582Z,16.83
2018-09-14T19:51:33.230Z,16.96
2018-09-14T19:54:00.773Z,16.84
2018-09-14T19:56:28.313Z,16.63
2018-09-14T19:58:56.050Z,16.76
2018-09-14T20:01:23.483Z,16.86
2018-09-14T20:03:50.989Z,16.83
2018-09-14T20:06:18.490Z,16.72
2018-09-14T20:08:45.773Z,16.67
2018-09-14T20:11:13.278Z,16.52
2018-09-14T20:13:42.963Z,16.64
2018-09-14T20:16:10.342Z,16.61
2018-09-14T20:18:37.671Z,16.68
2018-09-14T20:21:04.962Z,16.61
2018-09-14T20:23:32.272Z,16.48
2018-09-14T20:25:59.658Z,16.58
2018-09-14T20:28:26.925Z,16.77
2018-09-14T20:30:54.237Z,16.80
2018-09-14T20:33:21.533Z,16.82
2018-09-14T20:35:48.771Z,16.38
2018-09-14T20:38:16.176Z,16.36
2018-09-14T20:40:43.435Z,16.60
2018-09-14T20:43:11.325Z,16.66
2018-09-14T20:45:38.581Z,16.73
2018-09-14T20:48:05.792Z,16.73
2018-09-14T20:50:33.059Z,16.88
2018-09-14T20:53:00.528Z,16.74
2018-09-14T20:55:28.736Z,16.71
2018-09-14T20:58:02.497Z,16.73
2018-09-14T21:00:30.760Z,16.65
2018-09-14T21:02:57.964Z,16.66
2018-09-14T21:05:25.152Z,16.80
2018-09-14T21:07:52.484Z,16.78
2018-09-14T21:10:19.793Z,16.69
2018-09-14T21:12:47.977Z,16.47
2018-09-14T21:15:15.313Z,16.59
2018-09-14T21:17:42.614Z,16.61
2018-09-14T21:20:09.755Z,16.70
2018-09-14T21:22:37.042Z,16.69
2018-09-14T21:25:04.607Z,16.55
2018-09-14T21:27:32.022Z,16.61
2018-09-14T21:29:59.305Z,16.43
2018-09-14T21:32:26.454Z,16.38
2018-09-14T21:34:53.703Z,16.48
2018-09-14T21:37:20.872Z,16.49
2018-09-14T21:39:48.725Z,16.44
2018-09-14T21:42:16.196Z,16.52
2018-09-14T21:44:43.533Z,16.40
2018-09-14T21:47:12.488Z,16.28
2018-09-14T21:49:44.496Z,16.21
2018-09-14T21:52:11.800Z,16.25
2018-09-14T21:54:38.986Z,16.22
2018-09-14T21:57:05.992Z,16.41
2018-09-14T21:59:33.136Z,16.43
2018-09-14T22:02:00.410Z,16.22
2018-09-14T22:04:27.760Z,16.19
2018-09-14T22:06:54.884Z,16.23
2018-09-14T22:09:22.776Z,16.37
2018-09-14T22:11:49.921Z,16.46
2018-09-14T22:14:17.097Z,16.43
2018-09-14T22:16:44.653Z,16.12
2018-09-14T22:19:11.817Z,15.98
2018-09-14T22:21:39.110Z,15.90
2018-09-14T22:24:06.361Z,16.06
2018-09-14T22:26:33.541Z,16.31
2018-09-14T22:29:00.776Z,16.30
2018-09-14T22:31:28.021Z,16.37
2018-09-14T22:46:54.708Z,16.40
2018-09-14T22:49:21.900Z,15.86
2018-09-14T22:51:49.124Z,15.91
2018-09-14T22:54:16.271Z,15.93
2018-09-14T22:56:43.408Z,15.98
2018-09-14T22:59:10.645Z,16.07
2018-09-14T23:01:37.928Z,16.03
2018-09-14T23:04:05.183Z,15.90
2018-09-14T23:06:32.378Z,15.76
2018-09-14T23:08:59.564Z,15.93
2018-09-14T23:11:26.830Z,15.90
2018-09-14T23:13:53.964Z,15.77
2018-09-14T23:16:21.696Z,15.68
2018-09-14T23:18:49.012Z,15.68
2018-09-14T23:21:16.512Z,15.71
2018-09-14T23:23:43.891Z,15.64
2018-09-14T23:26:13.409Z,15.35
2018-09-14T23:28:40.735Z,15.33
2018-09-14T23:31:08.364Z,15.43
2018-09-14T23:33:35.574Z,15.53
2018-09-14T23:36:02.739Z,15.50
2018-09-14T23:38:29.816Z,15.55
2018-09-14T23:40:56.976Z,15.60
2018-09-14T23:43:24.151Z,15.54
2018-09-14T23:45:51.308Z,15.48
2018-09-14T23:48:18.476Z,15.49
2018-09-14T23:50:45.624Z,15.51
2018-09-14T23:53:12.712Z,15.40
2018-09-14T23:55:39.967Z,15.64
2018-09-14T23:58:07.132Z,15.77
